createdAt,value
2023-01-04T00:01:36.587Z,33.78
2023-01-04T00:04:06.986Z,30.77
2023-01-04T00:06:36.559Z,35.80
2023-01-04T00:09:04.914Z,31.52
2023-01-04T00:11:33.548Z,34.97
2023-01-04T00:14:01.887Z,39.80
2023-01-04T00:16:30.676Z,38.10
2023-01-04T00:18:59.352Z,36.75
2023-01-04T00:21:31.137Z,40.88
2023-01-04T00:24:01.565Z,43.42
2023-01-04T00:26:32.052Z,41.45
2023-01-04T00:29:02.056Z,42.22
2023-01-04T00:31:30.827Z,43.00
2023-01-04T00:34:00.935Z,40.10
2023-01-04T00:36:31.052Z,42.25
2023-01-04T00:39:10.200Z,34.25
2023-01-04T00:44:29.845Z,41.60
2023-01-04T00:46:58.719Z,38.17
2023-01-04T00:49:27.328Z,38.15
2023-01-04T00:51:57.455Z,35.83
2023-01-04T00:54:26.031Z,35.13
2023-01-04T00:56:54.569Z,30.17
2023-01-04T00:59:23.341Z,41.90
2023-01-04T01:01:52.793Z,37.65
2023-01-04T01:04:23.620Z,38.28
2023-01-04T01:06:53.003Z,38.17
2023-01-04T01:09:23.960Z,31.98
2023-01-04T01:14:22.844Z,37.17
2023-01-04T01:16:57.223Z,36.70
2023-01-04T01:19:27.856Z,37.08
2023-01-04T01:21:57.528Z,44.22
2023-01-04T01:24:28.025Z,41.35
2023-01-04T01:26:57.400Z,44.40
2023-01-04T01:29:25.983Z,40.83
2023-01-04T01:31:54.866Z,40.38
2023-01-04T01:34:23.097Z,39.33
2023-01-04T01:36:51.716Z,36.75
2023-01-04T01:39:20.077Z,42.88
2023-01-04T01:41:50.325Z,51.88
2023-01-04T01:44:56.261Z,45.95
2023-01-04T01:47:26.874Z,41.85
2023-01-04T01:49:55.866Z,40.28
2023-01-04T01:52:27.445Z,49.45
2023-01-04T01:57:27.245Z,45.15
2023-01-04T01:59:57.522Z,49.50
2023-01-04T02:02:26.289Z,50.67
2023-01-04T02:04:54.866Z,47.38
2023-01-04T02:07:25.447Z,47.35
2023-01-04T02:09:53.736Z,52.25
2023-01-04T02:12:22.537Z,51.72
2023-01-04T02:14:52.695Z,54.33
2023-01-04T02:17:31.119Z,47.03
2023-01-04T02:20:24.152Z,45.72
2023-01-04T02:23:19.087Z,45.33
2023-01-04T02:26:17.627Z,41.53
2023-01-04T02:29:02.035Z,43.72
2023-01-04T02:31:37.198Z,42.05
2023-01-04T02:34:10.953Z,42.72
2023-01-04T02:36:42.539Z,41.08
2023-01-04T02:39:18.571Z,40.92
2023-01-04T02:41:51.763Z,37.85
2023-01-04T02:44:41.950Z,37.70
2023-01-04T02:47:13.698Z,41.30
2023-01-04T02:50:04.616Z,36.03
2023-01-04T02:52:34.484Z,34.38
2023-01-04T02:55:06.671Z,39.05
2023-01-04T02:57:44.913Z,34.38
2023-01-04T03:00:29.818Z,32.85
2023-01-04T03:03:29.927Z,31.85
2023-01-04T03:06:16.725Z,31.33
2023-01-04T03:08:51.382Z,32.70
2023-01-04T03:11:37.628Z,34.45
2023-01-04T03:14:32.269Z,34.28
2023-01-04T03:17:00.461Z,35.58
2023-01-04T03:19:47.310Z,36.88
2023-01-04T03:22:31.777Z,33.13
2023-01-04T03:25:18.791Z,33.78
2023-01-04T03:28:05.441Z,33.55
2023-01-04T03:30:54.484Z,31.38
2023-01-04T03:33:41.035Z,35.95
2023-01-04T03:36:21.722Z,32.85
2023-01-04T03:39:11.208Z,31.25
2023-01-04T03:42:03.333Z,28.10
2023-01-04T03:44:51.850Z,26.48
2023-01-04T03:47:41.541Z,27.17
2023-01-04T03:50:14.187Z,25.30
2023-01-04T03:52:45.126Z,26.30
2023-01-04T03:57:42.261Z,24.75
2023-01-04T04:00:13.367Z,25.00
2023-01-04T04:02:42.485Z,27.88
2023-01-04T04:05:33.600Z,29.88
2023-01-04T04:08:21.147Z,24.02
2023-01-04T04:10:49.764Z,25.50
2023-01-04T04:13:20.762Z,25.67
2023-01-04T04:15:49.433Z,24.67
2023-01-04T04:18:17.686Z,26.95
2023-01-04T04:20:46.374Z,27.00
2023-01-04T04:23:15.979Z,23.35
2023-01-04T04:25:44.485Z,24.80
2023-01-04T04:28:12.750Z,26.83
2023-01-04T04:30:41.229Z,27.38
2023-01-04T04:33:09.624Z,25.83
2023-01-04T04:35:38.125Z,27.50
2023-01-04T04:38:06.358Z,28.10
2023-01-04T04:40:53.904Z,28.83
2023-01-04T04:43:22.507Z,27.55
2023-01-04T04:45:51.217Z,28.35
2023-01-04T04:48:19.796Z,30.95
2023-01-04T04:50:48.381Z,29.02
2023-01-04T04:53:16.694Z,27.25
2023-01-04T04:55:46.766Z,28.48
2023-01-04T04:58:15.090Z,27.58
2023-01-04T05:00:44.070Z,26.75
2023-01-04T05:03:12.623Z,25.05
2023-01-04T05:05:41.385Z,26.73
2023-01-04T05:08:09.755Z,26.08
2023-01-04T05:10:38.988Z,26.58
2023-01-04T05:13:10.844Z,26.20
2023-01-04T05:15:41.583Z,28.38
2023-01-04T05:18:11.095Z,28.23
2023-01-04T05:20:39.769Z,26.30
2023-01-04T05:23:09.045Z,26.55
2023-01-04T05:25:37.741Z,27.67
2023-01-04T05:28:08.248Z,27.33
2023-01-04T05:30:51.290Z,27.13
2023-01-04T05:33:21.435Z,27.23
2023-01-04T05:35:50.537Z,25.93
2023-01-04T05:38:19.396Z,25.95
2023-01-04T05:40:48.340Z,26.02
2023-01-04T05:43:18.224Z,23.75
2023-01-04T05:45:50.211Z,25.23
2023-01-04T05:48:18.541Z,22.70
2023-01-04T05:50:47.393Z,22.67
2023-01-04T05:53:18.971Z,20.25
2023-01-04T05:55:49.220Z,21.35
2023-01-04T05:58:19.197Z,20.27
2023-01-04T06:00:47.707Z,20.33
2023-01-04T06:03:16.098Z,20.52
2023-01-04T06:05:44.652Z,20.40
2023-01-04T06:08:12.892Z,18.33
2023-01-04T06:10:41.542Z,19.30
2023-01-04T06:13:09.890Z,18.63
2023-01-04T06:15:43.169Z,18.35
2023-01-04T06:18:13.862Z,20.15
2023-01-04T06:20:44.124Z,19.23
2023-01-04T06:23:12.328Z,18.38
2023-01-04T06:25:40.917Z,17.90
2023-01-04T06:28:09.344Z,17.17
2023-01-04T06:30:39.282Z,18.48
2023-01-04T06:33:07.595Z,19.23
2023-01-04T06:35:36.786Z,18.58
2023-01-04T06:38:05.046Z,19.15
2023-01-04T06:40:33.592Z,19.58
2023-01-04T06:43:01.870Z,18.13
2023-01-04T06:45:30.744Z,18.17
2023-01-04T06:48:04.450Z,18.67
2023-01-04T06:50:36.293Z,17.83
2023-01-04T06:53:04.835Z,18.08
2023-01-04T06:55:33.763Z,19.73
2023-01-04T06:58:02.816Z,19.55
2023-01-04T07:00:31.988Z,19.00
2023-01-04T07:03:13.510Z,20.10
2023-01-04T07:05:49.096Z,18.58
2023-01-04T07:08:18.383Z,20.17
2023-01-04T07:10:48.100Z,19.00
2023-01-04T07:13:19.442Z,18.67
2023-01-04T07:15:49.016Z,19.33
2023-01-04T07:18:20.814Z,19.50
2023-01-04T07:20:49.731Z,17.95
2023-01-04T07:23:24.182Z,16.70
2023-01-04T07:25:53.825Z,16.40
2023-01-04T07:28:36.181Z,16.90
2023-01-04T07:31:07.668Z,14.52
2023-01-04T07:33:39.171Z,14.45
2023-01-04T07:36:13.524Z,14.65
2023-01-04T07:38:44.346Z,13.65
2023-01-04T07:41:14.054Z,13.73
2023-01-04T07:43:42.538Z,13.48
2023-01-04T07:46:11.634Z,13.90
2023-01-04T07:48:44.200Z,14.30
2023-01-04T07:51:13.175Z,14.30
2023-01-04T07:53:42.388Z,13.65
2023-01-04T07:56:16.764Z,13.98
2023-01-04T07:58:49.865Z,13.82
2023-01-04T08:01:20.678Z,14.55
2023-01-04T08:03:51.766Z,14.43
2023-01-04T08:06:22.539Z,14.57
2023-01-04T08:08:51.069Z,14.55
2023-01-04T08:11:22.795Z,15.18
2023-01-04T08:13:51.547Z,14.80
2023-01-04T08:16:25.332Z,15.73
2023-01-04T08:18:57.109Z,13.98
2023-01-04T08:21:27.383Z,15.48
2023-01-04T08:23:56.152Z,16.85
2023-01-04T08:26:24.795Z,38.33
2023-01-04T08:28:53.510Z,21.98
2023-01-04T08:31:23.605Z,20.73
2023-01-04T08:33:52.288Z,18.48
2023-01-04T08:36:27.108Z,15.13
2023-01-04T08:39:00.591Z,15.48
2023-01-04T08:44:19.295Z,15.85
2023-01-04T08:46:48.920Z,16.30
2023-01-04T08:49:18.271Z,15.10
2023-01-04T08:51:52.322Z,15.15
2023-01-04T08:54:21.176Z,15.80
2023-01-04T08:56:49.899Z,15.23
2023-01-04T08:59:18.669Z,14.27
2023-01-04T09:01:47.784Z,15.68
2023-01-04T09:04:16.331Z,13.98
2023-01-04T09:06:45.031Z,14.27
2023-01-04T09:09:14.829Z,14.25
2023-01-04T09:11:43.517Z,14.13
2023-01-04T09:14:14.116Z,13.43
2023-01-04T09:16:43.021Z,14.05
2023-01-04T09:19:15.150Z,14.23
2023-01-04T09:21:47.077Z,11.50
2023-01-04T09:24:16.942Z,15.13
2023-01-04T09:26:47.661Z,12.18
2023-01-04T09:29:16.216Z,10.87
2023-01-04T09:31:45.080Z,9.43
2023-01-04T09:34:16.481Z,10.23
2023-01-04T09:36:46.346Z,9.52
2023-01-04T09:39:24.450Z,9.23
2023-01-04T09:41:59.046Z,8.10
2023-01-04T09:47:34.456Z,7.28
2023-01-04T09:50:08.143Z,8.38
2023-01-04T09:52:44.563Z,7.60
2023-01-04T09:55:37.626Z,8.30
2023-01-04T09:58:15.099Z,7.82
2023-01-04T10:00:46.372Z,7.22
2023-01-04T10:03:17.756Z,7.30
2023-01-04T10:05:46.471Z,7.50
2023-01-04T10:08:17.818Z,6.90
2023-01-04T10:10:56.438Z,7.15
2023-01-04T10:13:40.074Z,6.88
2023-01-04T10:16:17.653Z,7.03
2023-01-04T10:19:36.969Z,7.40
2023-01-04T10:21:49.082Z,6.68
2023-01-04T10:24:36.823Z,7.05
2023-01-04T10:27:18.415Z,6.70
2023-01-04T10:29:54.867Z,8.82
2023-01-04T10:32:34.392Z,7.75
2023-01-04T10:35:03.957Z,7.90
2023-01-04T10:37:36.087Z,8.05
2023-01-04T10:40:14.054Z,7.07
2023-01-04T10:42:50.334Z,8.90
2023-01-04T10:45:22.656Z,9.65
2023-01-04T10:47:57.755Z,8.48
2023-01-04T10:50:30.752Z,8.68
2023-01-04T10:53:04.077Z,8.02
2023-01-04T10:55:37.982Z,8.55
2023-01-04T10:58:13.853Z,8.43
2023-01-04T11:00:45.582Z,8.00
2023-01-04T11:03:20.014Z,8.55
2023-01-04T11:05:52.846Z,8.07
2023-01-04T11:08:27.778Z,8.07
2023-01-04T11:10:59.886Z,9.10
2023-01-04T11:13:29.934Z,13.60
2023-01-04T11:16:01.458Z,10.52
2023-01-04T11:18:30.334Z,11.85
2023-01-04T11:20:59.127Z,9.20
2023-01-04T11:23:27.524Z,8.43
2023-01-04T11:25:59.097Z,8.82
2023-01-04T11:28:31.243Z,10.88
2023-01-04T11:31:05.532Z,9.90
2023-01-04T11:33:53.526Z,9.20
2023-01-04T11:36:39.927Z,9.90
2023-01-04T11:39:18.917Z,8.85
2023-01-04T11:42:00.753Z,8.77
2023-01-04T11:44:33.606Z,9.98
2023-01-04T11:47:10.893Z,8.20
2023-01-04T11:49:39.301Z,9.05
2023-01-04T11:52:08.656Z,8.27
2023-01-04T11:54:37.208Z,7.68
2023-01-04T11:57:11.605Z,7.03
2023-01-04T11:59:41.987Z,6.78
2023-01-04T12:05:26.190Z,6.40
2023-01-04T12:07:59.269Z,6.30
2023-01-04T12:10:29.809Z,6.22
2023-01-04T12:13:02.425Z,7.57
2023-01-04T12:15:37.041Z,7.15
2023-01-04T12:18:08.028Z,6.07
2023-01-04T12:20:37.595Z,6.10
2023-01-04T12:23:06.857Z,5.75
2023-01-04T12:25:40.496Z,5.32
2023-01-04T12:28:30.099Z,5.43
2023-01-04T12:31:28.684Z,5.50
2023-01-04T12:33:58.781Z,5.53
2023-01-04T12:37:03.105Z,5.38
2023-01-04T12:39:43.936Z,6.45
2023-01-04T12:42:25.011Z,8.57
2023-01-04T12:45:24.479Z,10.68
2023-01-04T12:48:13.087Z,11.52
2023-01-04T12:51:31.597Z,6.35
2023-01-04T12:54:02.237Z,6.18
2023-01-04T12:57:08.253Z,5.63
2023-01-04T12:59:38.746Z,4.82
2023-01-04T13:02:18.575Z,4.57
2023-01-04T13:04:49.303Z,4.82
2023-01-04T13:07:22.298Z,4.78
2023-01-04T13:09:56.288Z,4.72
2023-01-04T13:13:01.056Z,4.18
2023-01-04T13:15:42.670Z,4.40
2023-01-04T13:18:30.454Z,4.32
2023-01-04T13:21:01.390Z,4.80
2023-01-04T13:23:32.061Z,5.13
2023-01-04T13:26:33.753Z,4.20
2023-01-04T13:29:12.034Z,6.13
2023-01-04T13:31:46.904Z,5.93
2023-01-04T13:34:24.686Z,5.65
2023-01-04T13:37:17.370Z,6.22
2023-01-04T13:39:47.991Z,8.95
2023-01-04T13:42:25.320Z,5.80
2023-01-04T13:45:39.642Z,6.03
2023-01-04T13:48:12.425Z,6.35
2023-01-04T13:50:47.500Z,6.45
2023-01-04T13:53:22.842Z,5.82
2023-01-04T13:55:53.160Z,6.25
2023-01-04T13:58:23.299Z,5.68
2023-01-04T14:00:54.937Z,6.22
2023-01-04T14:03:29.047Z,6.68
2023-01-04T14:06:04.688Z,7.55
2023-01-04T14:08:39.737Z,6.03
2023-01-04T14:11:36.907Z,9.45
2023-01-04T14:14:05.997Z,8.05
2023-01-04T14:16:35.005Z,9.02
2023-01-04T14:19:40.402Z,9.15
2023-01-04T14:22:40.010Z,7.68
2023-01-04T14:25:56.727Z,6.78
2023-01-04T14:28:38.855Z,7.95
2023-01-04T14:31:30.183Z,10.20
2023-01-04T14:34:00.594Z,8.15
2023-01-04T14:36:32.787Z,6.43
2023-01-04T14:39:13.509Z,7.35
2023-01-04T14:41:46.013Z,5.05
2023-01-04T14:44:21.152Z,8.43
2023-01-04T14:46:51.593Z,6.40
2023-01-04T14:49:22.470Z,5.75
2023-01-04T14:51:53.492Z,5.25
2023-01-04T14:54:25.397Z,4.93
2023-01-04T14:56:54.820Z,4.65
2023-01-04T14:59:25.728Z,4.82
2023-01-04T15:01:55.067Z,4.63
2023-01-04T15:04:25.790Z,5.15
2023-01-04T15:06:56.762Z,4.50
2023-01-04T15:09:25.707Z,4.65
2023-01-04T15:11:55.417Z,4.88
2023-01-04T15:14:27.999Z,4.55
2023-01-04T15:16:56.698Z,4.40
2023-01-04T15:19:25.768Z,3.55
2023-01-04T15:21:54.621Z,3.83
2023-01-04T15:24:23.512Z,3.70
2023-01-04T15:26:52.598Z,4.28
2023-01-04T15:29:22.641Z,4.28
2023-01-04T15:31:52.773Z,5.30
2023-01-04T15:34:23.272Z,8.43
2023-01-04T15:36:52.786Z,10.00
2023-01-04T15:39:21.886Z,10.50
2023-01-04T15:42:04.392Z,11.55
2023-01-04T15:44:34.054Z,15.88
2023-01-04T15:47:04.420Z,9.35
2023-01-04T15:49:38.561Z,8.43
2023-01-04T15:52:07.372Z,9.25
2023-01-04T15:54:37.625Z,7.70
2023-01-04T15:57:06.582Z,7.47
2023-01-04T15:59:35.536Z,7.53
2023-01-04T16:02:05.698Z,7.40
2023-01-04T16:04:34.495Z,7.38
2023-01-04T16:07:03.009Z,6.15
2023-01-04T16:09:31.884Z,6.50
2023-01-04T16:12:18.159Z,8.00
2023-01-04T16:14:46.687Z,6.47
2023-01-04T16:17:16.465Z,9.90
2023-01-04T16:19:45.209Z,8.35
2023-01-04T16:22:13.941Z,7.88
2023-01-04T16:25:09.926Z,6.93
2023-01-04T16:27:35.397Z,7.18
2023-01-04T16:30:05.436Z,6.65
2023-01-04T16:32:41.774Z,6.03
2023-01-04T16:35:13.045Z,7.13
2023-01-04T16:37:43.084Z,6.82
2023-01-04T16:40:13.334Z,7.83
2023-01-04T16:42:41.937Z,6.78
2023-01-04T16:45:11.992Z,6.43
2023-01-04T16:47:43.948Z,6.38
2023-01-04T16:50:13.649Z,6.45
2023-01-04T16:52:42.229Z,7.50
2023-01-04T16:55:12.036Z,6.78
2023-01-04T16:57:40.514Z,6.00
2023-01-04T17:00:10.624Z,5.57
2023-01-04T17:02:39.786Z,6.35
2023-01-04T17:05:10.773Z,6.53
2023-01-04T17:07:42.311Z,6.47
2023-01-04T17:10:13.236Z,5.60
2023-01-04T17:12:49.447Z,6.03
2023-01-04T17:18:08.106Z,4.60
2023-01-04T17:20:41.021Z,5.25
2023-01-04T17:23:10.081Z,5.18
2023-01-04T17:25:38.844Z,5.25
2023-01-04T17:28:07.376Z,5.22
2023-01-04T17:30:39.230Z,4.72
2023-01-04T17:35:41.561Z,4.38
2023-01-04T17:38:10.545Z,5.25
2023-01-04T17:40:39.743Z,13.10
2023-01-04T17:43:09.024Z,13.13
2023-01-04T17:45:38.442Z,9.13
2023-01-04T17:48:08.235Z,8.18
2023-01-04T17:50:39.761Z,6.95
2023-01-04T17:53:08.361Z,6.43
2023-01-04T17:55:38.188Z,7.45
2023-01-04T17:58:10.055Z,5.50
2023-01-04T18:00:42.825Z,8.30
2023-01-04T18:03:12.228Z,8.30
2023-01-04T18:05:52.037Z,6.93
2023-01-04T18:08:21.611Z,6.75
2023-01-04T18:11:07.323Z,6.97
2023-01-04T18:13:36.929Z,7.22
2023-01-04T18:16:23.939Z,6.32
2023-01-04T18:18:58.104Z,6.40
2023-01-04T18:21:31.065Z,6.45
2023-01-04T18:24:35.504Z,6.10
2023-01-04T18:29:42.227Z,5.32
2023-01-04T18:32:13.630Z,5.90
2023-01-04T18:34:43.221Z,6.22
2023-01-04T18:37:16.393Z,5.07
2023-01-04T18:39:45.919Z,5.88
2023-01-04T18:42:15.122Z,5.40
2023-01-04T18:44:51.077Z,5.45
2023-01-04T18:47:21.859Z,5.82
2023-01-04T18:49:51.436Z,4.43
2023-01-04T18:52:22.594Z,5.47
2023-01-04T18:54:52.305Z,5.93
2023-01-04T18:57:22.823Z,4.65
2023-01-04T18:59:52.134Z,5.15
2023-01-04T19:02:22.367Z,5.13
2023-01-04T19:04:52.597Z,5.95
2023-01-04T19:07:23.642Z,4.45
2023-01-04T19:09:52.382Z,4.63
2023-01-04T19:12:21.596Z,5.43
2023-01-04T19:14:50.373Z,5.22
2023-01-04T19:17:21.668Z,6.55
2023-01-04T19:19:50.355Z,11.07
2023-01-04T19:22:19.121Z,7.75
2023-01-04T19:24:49.285Z,5.80
2023-01-04T19:27:19.844Z,5.03
2023-01-04T19:29:48.717Z,6.07
2023-01-04T19:32:21.343Z,9.82
2023-01-04T19:34:52.173Z,5.53
2023-01-04T19:37:21.552Z,5.47
2023-01-04T19:39:51.611Z,5.13
2023-01-04T19:42:21.153Z,5.75
2023-01-04T19:44:49.698Z,6.30
2023-01-04T19:47:19.258Z,4.95
2023-01-04T19:49:49.174Z,5.97
2023-01-04T19:52:18.063Z,5.57
2023-01-04T19:54:46.331Z,4.90
2023-01-04T19:57:16.272Z,4.95
2023-01-04T19:59:44.640Z,5.05
2023-01-04T20:02:13.765Z,5.30
2023-01-04T20:04:42.735Z,5.25
2023-01-04T20:07:12.109Z,6.60
2023-01-04T20:09:43.719Z,4.60
2023-01-04T20:12:12.808Z,5.95
2023-01-04T20:14:45.010Z,4.57
2023-01-04T20:17:16.091Z,4.72
2023-01-04T20:19:46.303Z,4.88
2023-01-04T20:22:17.687Z,6.07
2023-01-04T20:24:46.867Z,5.07
2023-01-04T20:27:16.162Z,5.20
2023-01-04T20:29:46.160Z,4.93
2023-01-04T20:32:15.104Z,4.97
2023-01-04T20:34:44.849Z,6.30
2023-01-04T20:37:14.082Z,6.72
2023-01-04T20:39:42.585Z,5.30
2023-01-04T20:42:29.068Z,4.90
2023-01-04T20:44:59.330Z,5.18
2023-01-04T20:47:30.503Z,5.25
2023-01-04T20:49:59.578Z,5.15
2023-01-04T20:52:30.027Z,5.60
2023-01-04T20:54:59.700Z,5.53
2023-01-04T20:57:28.774Z,4.85
2023-01-04T20:59:58.813Z,4.82
2023-01-04T21:02:30.230Z,5.47
2023-01-04T21:05:01.858Z,5.13
2023-01-04T21:07:31.086Z,5.78
2023-01-04T21:09:59.742Z,6.30
2023-01-04T21:12:29.463Z,5.65
2023-01-04T21:14:59.773Z,5.72
2023-01-04T21:17:29.369Z,5.75
2023-01-04T21:19:58.251Z,6.18
2023-01-04T21:22:27.196Z,6.05
2023-01-04T21:24:56.039Z,6.72
2023-01-04T21:27:24.933Z,4.78
2023-01-04T21:29:53.229Z,5.45
2023-01-04T21:32:23.391Z,5.65
2023-01-04T21:34:54.094Z,4.95
2023-01-04T21:37:25.116Z,4.75
2023-01-04T21:39:57.180Z,5.63
2023-01-04T21:42:26.317Z,5.43
2023-01-04T21:44:55.523Z,5.68
2023-01-04T21:47:28.581Z,5.15
2023-01-04T21:49:57.381Z,4.40
2023-01-04T21:52:26.475Z,4.88
2023-01-04T21:54:55.364Z,4.30
2023-01-04T21:57:24.411Z,4.68
2023-01-04T21:59:53.025Z,4.30
2023-01-04T22:02:22.434Z,4.60
2023-01-04T22:04:52.468Z,4.50
2023-01-04T22:07:21.303Z,4.25
2023-01-04T22:09:57.091Z,4.35
2023-01-04T22:12:26.486Z,4.70
2023-01-04T22:14:55.309Z,4.38
2023-01-04T22:17:24.037Z,5.18
2023-01-04T22:19:53.900Z,4.55
2023-01-04T22:22:22.786Z,6.88
2023-01-04T22:24:51.743Z,4.97
2023-01-04T22:27:21.006Z,4.55
2023-01-04T22:29:49.320Z,3.78
2023-01-04T22:32:18.684Z,4.00
2023-01-04T22:34:51.710Z,4.70
2023-01-04T22:37:24.533Z,4.30
2023-01-04T22:40:03.377Z,4.05
2023-01-04T22:42:34.812Z,4.28
2023-01-04T22:45:12.784Z,4.10
2023-01-04T22:47:42.911Z,3.95
2023-01-04T22:50:18.624Z,4.05
2023-01-04T22:52:51.035Z,4.00
2023-01-04T22:55:45.784Z,4.07
2023-01-04T22:58:26.569Z,3.95
2023-01-04T23:01:01.865Z,3.80
2023-01-04T23:03:30.910Z,3.88
2023-01-04T23:06:04.455Z,3.63
2023-01-04T23:08:38.859Z,4.10
2023-01-04T23:11:15.571Z,3.55
2023-01-04T23:13:44.248Z,3.55
2023-01-04T23:16:19.083Z,3.53
2023-01-04T23:18:50.010Z,3.50
2023-01-04T23:21:18.334Z,3.17
2023-01-04T23:23:52.649Z,4.13
2023-01-04T23:26:24.130Z,3.03
2023-01-04T23:28:55.989Z,3.80
2023-01-04T23:31:32.790Z,4.13
2023-01-04T23:34:07.640Z,3.60
2023-01-04T23:36:38.239Z,2.85
2023-01-04T23:39:14.033Z,3.47
2023-01-04T23:41:45.794Z,3.78
2023-01-04T23:44:19.505Z,3.85
2023-01-04T23:46:48.516Z,3.80
2023-01-04T23:49:17.271Z,3.25
2023-01-04T23:51:45.567Z,3.60
2023-01-04T23:54:15.641Z,3.58
2023-01-04T23:56:44.016Z,3.22
2023-01-04T23:59:14.742Z,3.72
